Time;durP1;ratioP1;P1;durP2;ratioP2;P2;SDS_P1;SDS_P2;PMS_P1;PMS_P2;Temp;Humidity;BMP_temperature;BMP_pressure;BME280_temperature;BME280_humidity;BME280_pressure;Samples;Min_cycle;Max_cycle;Signal;HPM_P1;HPM_P2
2023/01/27 00:00:22;;;;;;;15.07;10.15;;;3.90;99.90;;;;;;4969362;28;20034;-89
2023/01/27 00:02:47;;;;;;;16.98;10.68;;;4.00;99.90;;;;;;4956159;28;20051;-89
2023/01/27 00:05:14;;;;;;;16.42;10.18;;;3.90;99.90;;;;;;4957126;28;20113;-89
2023/01/27 00:07:44;;;;;;;16.00;9.90;;;3.90;99.90;;;;;;4957272;28;20119;-88
2023/01/27 00:10:14;;;;;;;17.17;10.38;;;3.90;99.90;;;;;;4988520;28;20042;-89
2023/01/27 00:15:28;;;;;;;15.80;10.57;;;3.90;99.90;;;;;;4991402;28;20054;-88
2023/01/27 00:17:54;;;;;;;15.70;10.30;;;4.80;99.90;;;;;;4992063;28;20489;-88
2023/01/27 00:25:57;;;;;;;20.38;11.48;;;4.00;99.90;;;;;;4971771;28;20136;-88
2023/01/27 00:28:24;;;;;;;14.25;10.95;;;4.00;99.90;;;;;;4957249;28;20050;-89
2023/01/27 00:30:50;;;;;;;17.55;9.98;;;4.30;99.90;;;;;;4972357;28;20077;-89
2023/01/27 00:33:27;;;;;;;16.65;10.23;;;4.80;99.90;;;;;;4969663;28;20138;-88
2023/01/27 00:36:06;;;;;;;15.15;8.85;;;4.00;99.90;;;;;;4957031;28;20571;-89
2023/01/27 00:38:39;;;;;;;11.45;8.30;;;4.00;99.90;;;;;;4969537;28;20053;-88
2023/01/27 00:41:14;;;;;;;12.80;8.35;;;5.00;99.90;;;;;;4976014;28;20163;-88
2023/01/27 00:43:40;;;;;;;10.68;8.50;;;4.00;99.90;;;;;;4967472;28;20038;-89
2023/01/27 00:46:07;;;;;;;10.18;8.10;;;4.40;99.90;;;;;;4937202;28;20054;-89
2023/01/27 00:48:33;;;;;;;10.82;8.07;;;4.00;99.90;;;;;;4952436;28;20494;-87
2023/01/27 00:50:58;;;;;;;10.45;8.48;;;4.00;99.90;;;;;;4952739;28;20049;-88
2023/01/27 00:53:24;;;;;;;12.75;8.18;;;4.00;99.90;;;;;;4953243;28;20035;-89
2023/01/27 00:55:50;;;;;;;13.18;8.60;;;4.60;99.90;;;;;;4962391;28;20480;-89
2023/01/27 00:58:15;;;;;;;14.32;8.25;;;3.90;99.90;;;;;;4979124;28;20050;-88
2023/01/27 01:00:41;;;;;;;11.05;7.60;;;3.90;99.90;;;;;;4956845;28;20046;-90
2023/01/27 01:03:07;;;;;;;11.50;7.63;;;4.00;99.90;;;;;;4956191;28;20120;-88
2023/01/27 01:05:33;;;;;;;9.27;7.55;;;4.00;99.90;;;;;;4956716;28;20066;-88
2023/01/27 01:07:58;;;;;;;10.43;7.55;;;4.00;99.90;;;;;;4957225;28;20049;-89
2023/01/27 01:10:24;;;;;;;9.68;7.65;;;4.00;99.90;;;;;;4957043;28;20093;-88
2023/01/27 01:12:50;;;;;;;10.00;7.32;;;4.90;99.90;;;;;;4958165;28;20053;-88
2023/01/27 01:15:15;;;;;;;9.95;7.82;;;4.70;99.90;;;;;;4972621;28;20485;-89
2023/01/27 01:17:41;;;;;;;11.68;7.57;;;4.00;99.90;;;;;;4989222;28;20043;-89
2023/01/27 01:20:07;;;;;;;9.07;6.75;;;4.00;99.90;;;;;;4991384;28;20084;-89
2023/01/27 01:22:36;;;;;;;9.13;6.63;;;4.00;99.90;;;;;;4973930;28;20129;-89
2023/01/27 01:25:02;;;;;;;10.00;6.75;;;5.20;99.90;;;;;;4956518;28;20054;-90
2023/01/27 01:27:30;;;;;;;7.55;5.72;;;4.00;99.90;;;;;;4955489;28;20042;-89
2023/01/27 01:29:56;;;;;;;7.00;5.88;;;3.80;99.90;;;;;;4962341;28;20046;-89
2023/01/27 01:32:22;;;;;;;7.88;6.40;;;4.60;99.90;;;;;;4972842;28;20051;-89
2023/01/27 01:34:47;;;;;;;6.82;5.95;;;4.00;99.90;;;;;;4971662;28;20053;-89
2023/01/27 01:37:13;;;;;;;6.40;5.80;;;4.00;99.90;;;;;;4973748;28;20083;-90
2023/01/27 01:39:39;;;;;;;8.60;5.28;;;4.00;99.90;;;;;;4975797;28;20058;-90
2023/01/27 01:42:04;;;;;;;9.68;5.60;;;4.00;99.90;;;;;;4976222;28;20489;-89
2023/01/27 01:44:31;;;;;;;7.95;5.68;;;4.00;99.90;;;;;;4971806;28;20468;-89
2023/01/27 01:46:58;;;;;;;6.68;5.07;;;4.00;99.90;;;;;;4960186;28;20086;-90
2023/01/27 01:49:33;;;;;;;6.18;5.03;;;4.00;99.90;;;;;;4975501;28;20042;-89
2023/01/27 01:52:07;;;;;;;8.00;5.35;;;4.00;99.90;;;;;;4975698;28;20046;-89
2023/01/27 01:54:47;;;;;;;7.40;5.18;;;4.00;99.90;;;;;;4976759;28;20464;-89
2023/01/27 01:57:30;;;;;;;5.68;4.93;;;4.10;99.90;;;;;;4945483;28;20086;-89
2023/01/27 02:00:00;;;;;;;6.72;5.38;;;4.00;99.90;;;;;;4978249;28;20042;-89
2023/01/27 02:02:27;;;;;;;5.65;4.97;;;4.10;99.90;;;;;;4993774;28;20574;-89
2023/01/27 02:05:03;;;;;;;6.75;5.80;;;4.00;99.90;;;;;;4978728;28;20042;-90
2023/01/27 02:07:58;;;;;;;5.85;5.15;;;4.00;99.90;;;;;;4978381;28;20057;-89
2023/01/27 02:10:24;;;;;;;7.65;5.47;;;4.00;99.90;;;;;;4974856;28;20039;-90
2023/01/27 02:12:49;;;;;;;9.63;6.25;;;4.00;99.90;;;;;;4959820;28;20046;-89
2023/01/27 02:15:16;;;;;;;8.13;5.90;;;4.00;99.90;;;;;;4959090;28;20038;-89
2023/01/27 02:17:42;;;;;;;8.90;6.70;;;4.00;99.90;;;;;;4958655;28;20069;-89
2023/01/27 02:20:20;;;;;;;8.18;5.88;;;5.00;99.90;;;;;;4991372;28;20497;-90
2023/01/27 02:22:56;;;;;;;8.30;6.47;;;4.00;99.90;;;;;;4991362;28;20043;-89
2023/01/27 02:25:29;;;;;;;8.20;5.97;;;4.00;99.90;;;;;;4973839;28;20058;-90
2023/01/27 02:27:55;;;;;;;7.75;6.15;;;4.00;99.90;;;;;;4942279;28;20077;-89
2023/01/27 02:30:21;;;;;;;7.90;6.07;;;4.00;99.90;;;;;;4958300;28;20078;-90
2023/01/27 02:32:46;;;;;;;7.65;6.00;;;4.00;99.90;;;;;;4972525;28;20046;-89
2023/01/27 02:35:16;;;;;;;9.60;5.55;;;4.00;99.90;;;;;;4972729;28;20053;-90
2023/01/27 02:37:42;;;;;;;6.88;5.88;;;4.00;99.90;;;;;;4974440;28;20046;-89
2023/01/27 02:40:12;;;;;;;5.93;5.28;;;4.00;99.90;;;;;;4975243;28;20073;-90
2023/01/27 02:42:37;;;;;;;8.50;5.22;;;4.00;99.90;;;;;;4977405;28;20042;-90
2023/01/27 02:45:03;;;;;;;6.88;5.15;;;4.00;99.90;;;;;;4992779;28;20527;-89
2023/01/27 02:47:29;;;;;;;6.57;4.85;;;4.00;99.90;;;;;;4975253;28;20372;-90
2023/01/27 02:49:55;;;;;;;6.68;5.10;;;4.00;99.90;;;;;;4987075;28;20101;-89
2023/01/27 02:52:21;;;;;;;7.50;4.70;;;4.00;99.90;;;;;;4957640;28;20580;-90
2023/01/27 02:54:47;;;;;;;7.80;4.75;;;4.00;99.90;;;;;;4957275;28;20049;-90
2023/01/27 02:57:12;;;;;;;6.22;4.47;;;4.00;99.90;;;;;;4990924;28;20058;-90
2023/01/27 02:59:38;;;;;;;6.55;4.72;;;5.20;99.90;;;;;;4977988;28;20412;-89
2023/01/27 03:02:04;;;;;;;6.85;4.20;;;4.10;99.90;;;;;;4958498;28;20496;-89
2023/01/27 03:04:29;;;;;;;6.55;3.97;;;4.10;99.90;;;;;;4956856;28;20366;-88
2023/01/27 03:06:55;;;;;;;5.40;3.40;;;4.00;99.90;;;;;;4972943;28;20053;-89
2023/01/27 03:09:21;;;;;;;3.97;3.50;;;4.10;99.90;;;;;;4989242;28;20493;-89
2023/01/27 03:19:59;;;;;;;3.70;2.70;;;4.20;99.90;;;;;;4986239;28;20061;-88
2023/01/27 03:22:25;;;;;;;4.55;2.95;;;4.20;99.90;;;;;;4972346;28;20447;-88
2023/01/27 03:24:51;;;;;;;2.92;2.60;;;4.20;99.90;;;;;;4936193;28;1111441;-89
2023/01/27 03:27:36;;;;;;;3.97;2.65;;;4.30;99.90;;;;;;4974259;28;20389;-89
2023/01/27 03:30:03;;;;;;;2.55;2.28;;;4.30;99.90;;;;;;4973564;28;20089;-89
2023/01/27 03:32:30;;;;;;;4.03;2.65;;;4.30;99.90;;;;;;4958407;28;20378;-88
2023/01/27 03:34:56;;;;;;;3.60;2.90;;;5.00;99.90;;;;;;4990906;28;20445;-88
2023/01/27 03:48:36;;;;;;;4.97;3.03;;;4.30;99.90;;;;;;4970093;28;20478;-90
2023/01/27 03:51:05;;;;;;;2.97;2.78;;;4.30;99.90;;;;;;4954525;28;20053;-89
2023/01/27 03:53:32;;;;;;;2.95;2.72;;;4.30;99.90;;;;;;4954225;28;20465;-89
2023/01/27 03:55:58;;;;;;;3.40;3.10;;;4.30;99.90;;;;;;4939009;28;20440;-88
2023/01/27 03:58:26;;;;;;;3.20;2.90;;;4.30;99.90;;;;;;4950048;28;20126;-89
2023/01/27 04:01:02;;;;;;;5.53;3.42;;;4.80;99.90;;;;;;4956211;28;20129;-89
2023/01/27 04:07:49;;;;;;;4.93;2.97;;;4.60;99.90;;;;;;4990518;28;20047;-89
2023/01/27 04:10:11;;;;;;;3.00;2.72;;;4.20;99.90;;;;;;4954746;28;20059;-89
2023/01/27 04:13:02;;;;;;;3.35;2.78;;;4.10;99.90;;;;;;4949647;28;20050;-88
2023/01/27 04:15:37;;;;;;;2.93;2.50;;;4.70;99.90;;;;;;4986352;28;20505;-88
2023/01/27 04:18:02;;;;;;;4.85;2.92;;;4.70;99.90;;;;;;4972657;28;20050;-89
2023/01/27 04:20:28;;;;;;;2.97;2.67;;;4.30;99.90;;;;;;4972388;28;20049;-89
2023/01/27 04:22:57;;;;;;;3.22;2.95;;;4.20;99.90;;;;;;4972532;28;20072;-88
2023/01/27 04:25:35;;;;;;;2.92;2.72;;;4.10;99.90;;;;;;4993444;28;20061;-89
2023/01/27 04:28:03;;;;;;;3.50;2.70;;;5.10;99.90;;;;;;4958967;28;20521;-89
2023/01/27 04:30:39;;;;;;;3.10;2.80;;;4.20;99.90;;;;;;4957094;28;20046;-88
2023/01/27 04:33:09;;;;;;;4.68;2.80;;;4.80;99.90;;;;;;4971788;28;20089;-89
2023/01/27 04:35:55;;;;;;;2.95;2.65;;;4.20;99.90;;;;;;4956907;28;20057;-88
2023/01/27 04:38:21;;;;;;;4.00;2.30;;;4.20;99.90;;;;;;4972161;28;20148;-87
2023/01/27 04:40:55;;;;;;;3.08;2.58;;;3.50;99.90;;;;;;4955166;28;20054;-87
2023/01/27 04:43:21;;;;;;;3.85;2.50;;;4.20;99.90;;;;;;4971375;28;20409;-89
2023/01/27 04:45:46;;;;;;;4.05;2.58;;;4.70;99.90;;;;;;4956489;28;20056;-88
2023/01/27 04:48:12;;;;;;;3.25;2.30;;;4.20;99.90;;;;;;4974279;28;20056;-88
2023/01/27 04:50:38;;;;;;;3.10;2.80;;;4.20;99.90;;;;;;4976151;28;20096;-88
2023/01/27 04:53:03;;;;;;;3.30;2.45;;;4.10;99.90;;;;;;4972447;28;20189;-89
2023/01/27 04:55:29;;;;;;;4.68;2.45;;;4.10;99.90;;;;;;4972843;28;20092;-90
2023/01/27 04:57:55;;;;;;;3.85;2.63;;;4.10;99.90;;;;;;4988444;28;20047;-89
2023/01/27 05:00:20;;;;;;;2.70;2.50;;;4.10;99.90;;;;;;4972699;28;20512;-90
2023/01/27 05:02:46;;;;;;;3.90;2.25;;;4.00;99.90;;;;;;4975661;28;20056;-89
2023/01/27 05:05:11;;;;;;;2.38;2.17;;;4.00;99.90;;;;;;4975235;28;20044;-89
2023/01/27 05:07:38;;;;;;;4.07;2.38;;;4.00;99.90;;;;;;4975903;28;20038;-89
2023/01/27 05:10:05;;;;;;;2.92;2.42;;;4.00;99.90;;;;;;4976379;28;20072;-89
2023/01/27 05:12:31;;;;;;;3.00;2.70;;;4.00;99.90;;;;;;4972388;28;20141;-89
2023/01/27 05:14:59;;;;;;;2.60;2.40;;;4.00;99.90;;;;;;4972029;28;20143;-89
2023/01/27 05:17:26;;;;;;;4.95;2.47;;;4.00;99.90;;;;;;4973298;28;20043;-89
2023/01/27 05:19:52;;;;;;;2.60;2.15;;;4.00;99.90;;;;;;4966768;28;20073;-90
2023/01/27 05:22:18;;;;;;;3.20;2.33;;;4.00;99.90;;;;;;4956475;28;20078;-89
2023/01/27 05:24:43;;;;;;;3.33;2.35;;;4.00;99.90;;;;;;4956473;28;20058;-89
2023/01/27 05:27:24;;;;;;;2.90;2.30;;;3.90;99.90;;;;;;4968515;28;20057;-89
2023/01/27 05:29:50;;;;;;;5.60;2.50;;;3.90;99.90;;;;;;4974894;28;20127;-89
2023/01/27 05:32:15;;;;;;;3.58;2.60;;;4.50;99.90;;;;;;4975047;28;20120;-89
2023/01/27 05:34:41;;;;;;;4.68;2.85;;;3.60;99.90;;;;;;4967567;28;20046;-88
2023/01/27 05:37:07;;;;;;;6.75;3.10;;;3.90;99.90;;;;;;4972412;28;20041;-89
2023/01/27 05:39:35;;;;;;;5.88;3.10;;;3.90;99.90;;;;;;4956180;28;20068;-89
2023/01/27 05:42:01;;;;;;;7.97;2.85;;;3.90;99.90;;;;;;4961074;28;20133;-89
2023/01/27 05:44:27;;;;;;;3.35;2.50;;;4.10;99.90;;;;;;4964524;28;20133;-89
2023/01/27 05:46:53;;;;;;;3.28;2.80;;;3.90;99.90;;;;;;4955627;28;20096;-89
2023/01/27 05:49:18;;;;;;;5.97;3.13;;;3.90;99.90;;;;;;4956112;28;20121;-89
2023/01/27 05:51:44;;;;;;;4.05;2.90;;;3.80;99.90;;;;;;4956334;28;20050;-89
2023/01/27 05:54:12;;;;;;;5.53;3.10;;;3.90;99.90;;;;;;4955738;28;20074;-90
2023/01/27 05:56:39;;;;;;;5.25;2.95;;;4.40;99.90;;;;;;4955104;28;20049;-89
2023/01/27 05:59:05;;;;;;;3.72;2.70;;;3.90;99.90;;;;;;4981884;28;20394;-89
2023/01/27 06:01:33;;;;;;;4.90;2.90;;;3.90;99.90;;;;;;4956381;28;20042;-89
2023/01/27 06:03:59;;;;;;;5.78;3.00;;;3.80;99.90;;;;;;4968199;28;20104;-90
2023/01/27 06:06:26;;;;;;;4.63;3.08;;;3.80;99.90;;;;;;4960560;28;20117;-91
2023/01/27 06:08:52;;;;;;;2.85;2.65;;;3.80;99.90;;;;;;4975374;28;20092;-90
2023/01/27 06:11:19;;;;;;;4.38;2.58;;;5.00;99.90;;;;;;4975483;28;20058;-90
2023/01/27 06:13:48;;;;;;;6.50;2.83;;;3.80;99.90;;;;;;4972937;28;20045;-90
2023/01/27 06:16:24;;;;;;;4.32;2.80;;;3.80;99.90;;;;;;4975987;28;20088;-92
2023/01/27 06:18:49;;;;;;;4.78;3.03;;;3.80;99.90;;;;;;4974322;28;20050;-90
2023/01/27 06:21:16;;;;;;;3.88;2.75;;;3.50;99.90;;;;;;4975880;28;20196;-90
2023/01/27 06:23:42;;;;;;;3.75;2.70;;;3.80;99.90;;;;;;4977692;28;20065;-90
2023/01/27 06:26:15;;;;;;;3.03;2.75;;;4.50;99.90;;;;;;4979699;28;20050;-90
2023/01/27 06:28:40;;;;;;;4.53;2.60;;;3.80;99.90;;;;;;4973862;28;20842;-90
2023/01/27 06:31:14;;;;;;;3.90;2.90;;;3.70;99.90;;;;;;4959651;28;20054;-90
2023/01/27 06:33:43;;;;;;;2.85;2.58;;;3.70;99.90;;;;;;4939634;28;20043;-90
2023/01/27 06:36:12;;;;;;;3.60;2.67;;;3.20;99.90;;;;;;4939970;28;20046;-90
2023/01/27 06:38:37;;;;;;;6.13;3.10;;;3.70;99.90;;;;;;4939634;28;20058;-90
2023/01/27 06:41:04;;;;;;;3.78;2.90;;;3.70;99.90;;;;;;4956755;28;20050;-90
2023/01/27 06:43:33;;;;;;;3.75;2.90;;;4.50;99.90;;;;;;4941283;28;20053;-90
2023/01/27 06:45:58;;;;;;;3.72;3.15;;;3.70;99.90;;;;;;4980274;28;20097;-89
2023/01/27 06:48:36;;;;;;;3.50;2.80;;;3.70;99.90;;;;;;4996461;28;20038;-88
2023/01/27 06:51:05;;;;;;;3.20;2.83;;;3.70;99.90;;;;;;4975432;28;20374;-88
2023/01/27 06:53:31;;;;;;;4.55;2.50;;;4.90;99.90;;;;;;4979937;28;20030;-88
2023/01/27 06:56:00;;;;;;;3.08;2.70;;;3.50;99.90;;;;;;4985820;28;20050;-90
2023/01/27 06:58:26;;;;;;;3.80;2.28;;;3.70;99.90;;;;;;4958782;28;20050;-89
2023/01/27 07:00:52;;;;;;;2.50;2.30;;;3.60;99.90;;;;;;4957239;28;20065;-88
2023/01/27 07:03:18;;;;;;;4.63;3.05;;;2.80;99.90;;;;;;4957800;28;20046;-89
2023/01/27 07:05:44;;;;;;;5.50;3.05;;;3.40;99.90;;;;;;4958310;28;20377;-89
2023/01/27 07:08:18;;;;;;;3.97;2.58;;;3.40;99.90;;;;;;4957622;28;20467;-91
2023/01/27 07:10:44;;;;;;;4.72;2.90;;;3.70;99.90;;;;;;4959534;28;20053;-90
2023/01/27 07:13:12;;;;;;;5.57;2.95;;;3.40;99.90;;;;;;4958364;28;20046;-90
2023/01/27 07:15:38;;;;;;;4.82;2.45;;;3.50;99.90;;;;;;4950227;28;20508;-88
2023/01/27 07:18:04;;;;;;;4.57;3.00;;;3.20;99.90;;;;;;4973745;28;20046;-88
2023/01/27 07:20:31;;;;;;;3.50;2.70;;;3.40;99.90;;;;;;4957442;28;20125;-89
2023/01/27 07:23:02;;;;;;;2.80;2.30;;;3.20;99.90;;;;;;4975112;28;20073;-89
2023/01/27 07:25:29;;;;;;;4.07;2.75;;;3.50;99.90;;;;;;4968747;28;20057;-90
2023/01/27 07:27:59;;;;;;;6.97;3.47;;;3.50;99.90;;;;;;4974776;28;20078;-88
2023/01/27 07:30:26;;;;;;;7.38;3.15;;;3.20;99.90;;;;;;4968201;28;20121;-85
2023/01/27 07:32:53;;;;;;;4.70;2.58;;;3.50;99.90;;;;;;4955995;28;20053;-88
2023/01/27 07:35:20;;;;;;;6.80;3.00;;;3.50;99.90;;;;;;4980614;28;20054;-88
2023/01/27 07:37:46;;;;;;;3.28;2.95;;;3.30;99.90;;;;;;4975839;28;20427;-88
2023/01/27 07:40:15;;;;;;;4.93;3.00;;;3.40;99.90;;;;;;4970476;28;20338;-88
2023/01/27 07:42:41;;;;;;;3.95;2.50;;;4.00;99.90;;;;;;4965108;28;20433;-88
2023/01/27 07:45:07;;;;;;;3.60;2.92;;;3.40;99.90;;;;;;4983749;28;20048;-90
2023/01/27 07:47:33;;;;;;;8.48;3.17;;;3.50;99.90;;;;;;4967349;28;20104;-89
2023/01/27 07:49:58;;;;;;;3.35;2.65;;;3.50;99.90;;;;;;4967050;28;20125;-89
2023/01/27 07:52:24;;;;;;;5.95;2.97;;;3.50;99.90;;;;;;4973056;28;20076;-89
2023/01/27 07:54:49;;;;;;;4.68;3.13;;;3.80;99.90;;;;;;4969059;28;20140;-91
2023/01/27 07:57:15;;;;;;;7.78;3.35;;;3.50;99.90;;;;;;4964261;28;20043;-88
2023/01/27 07:59:40;;;;;;;5.28;3.28;;;3.40;99.90;;;;;;4956554;28;20129;-90
2023/01/27 08:02:08;;;;;;;4.80;3.00;;;3.50;99.90;;;;;;4968252;28;20042;-92
2023/01/27 08:04:33;;;;;;;6.13;3.22;;;3.50;99.90;;;;;;4991048;28;20053;-90
2023/01/27 08:07:00;;;;;;;3.90;3.10;;;3.60;99.90;;;;;;4971417;28;20038;-92
2023/01/27 08:09:27;;;;;;;5.50;3.30;;;;;;;;;;4972716;28;20693;-91
2023/01/27 08:11:53;;;;;;;3.40;3.00;;;;;;;;;;4973727;28;20046;-91
2023/01/27 08:14:19;;;;;;;4.25;3.10;;;;;;;;;;4943024;28;20053;-91
2023/01/27 08:16:45;;;;;;;4.35;3.53;;;;;;;;;;4954727;28;20043;-91
2023/01/27 08:19:11;;;;;;;6.03;3.38;;;;;;;;;;4954263;28;20046;-90
2023/01/27 08:21:37;;;;;;;3.75;2.85;;;;;;;;;;4954271;28;20046;-90
2023/01/27 08:24:03;;;;;;;3.55;2.92;;;;;;;;;;4954215;28;20062;-90
2023/01/27 08:26:29;;;;;;;6.35;3.33;;;;;;;;;;4953302;28;20042;-91
2023/01/27 08:28:56;;;;;;;3.55;2.88;;;;;;;;;;4956190;28;20047;-90
2023/01/27 08:31:25;;;;;;;4.65;3.00;;;;;;;;;;4968642;28;20053;-90
2023/01/27 08:33:53;;;;;;;3.88;2.95;;;;;;;;;;4952359;28;20051;-90
2023/01/27 08:36:21;;;;;;;4.40;3.10;;;;;;;;;;4952575;28;20113;-91
2023/01/27 08:38:48;;;;;;;6.70;3.33;;;;;;;;;;4952501;28;20046;-90
2023/01/27 08:41:17;;;;;;;7.40;3.55;;;;;;;;;;4953269;28;20047;-90
2023/01/27 08:43:44;;;;;;;5.40;3.40;;;;;;;;;;4952935;28;20049;-91
2023/01/27 08:46:11;;;;;;;4.18;3.80;;;;;;;;;;4953935;28;20115;-90
2023/01/27 08:48:37;;;;;;;6.95;4.10;;;;;;;;;;4954106;28;20057;-92
2023/01/27 08:51:04;;;;;;;8.63;3.58;;;;;;;;;;4954769;28;20055;-90
2023/01/27 08:53:31;;;;;;;4.22;3.42;;;;;;;;;;4954668;28;20046;-91
2023/01/27 08:55:59;;;;;;;4.55;3.75;;;;;;;;;;4970309;28;20049;-92
2023/01/27 08:58:26;;;;;;;5.70;3.80;;;;;;;;;;4954734;28;20049;-91
2023/01/27 09:00:51;;;;;;;7.97;4.10;;;4.00;99.90;;;;;;4954259;28;20135;-90
2023/01/27 09:03:17;;;;;;;7.57;3.85;;;3.90;99.90;;;;;;4953307;28;20595;-90
2023/01/27 09:05:44;;;;;;;5.88;4.68;;;;;;;;;;4953778;28;20461;-90
2023/01/27 09:08:09;;;;;;;7.22;4.20;;;4.10;99.90;;;;;;4953808;28;20066;-90
2023/01/27 09:10:39;;;;;;;10.07;5.20;;;4.20;99.90;;;;;;4954230;28;20047;-91
2023/01/27 09:13:07;;;;;;;7.00;5.28;;;;;;;;;;4957317;28;20046;-90
2023/01/27 09:15:36;;;;;;;6.82;4.65;;;4.30;99.90;;;;;;4951444;28;20043;-91
2023/01/27 09:18:03;;;;;;;9.15;5.05;;;4.10;99.90;;;;;;4936775;28;20134;-91
2023/01/27 09:20:30;;;;;;;7.13;4.72;;;4.30;99.90;;;;;;4937808;28;20038;-90
2023/01/27 09:22:56;;;;;;;5.93;4.97;;;4.30;99.90;;;;;;4937628;28;20043;-90
2023/01/27 09:25:22;;;;;;;7.55;4.82;;;4.20;99.90;;;;;;4938121;28;20527;-89
2023/01/27 09:27:52;;;;;;;7.32;5.13;;;4.20;99.90;;;;;;4938539;28;20093;-91
2023/01/27 09:30:18;;;;;;;5.75;5.07;;;4.30;99.90;;;;;;4956856;28;20389;-91
2023/01/27 09:32:43;;;;;;;8.10;5.25;;;4.20;99.90;;;;;;4956599;28;20073;-90
2023/01/27 09:35:09;;;;;;;5.22;4.65;;;4.50;99.90;;;;;;4957519;28;20046;-89
2023/01/27 09:37:39;;;;;;;5.30;4.80;;;;;;;;;;4956953;28;20081;-90
2023/01/27 09:40:30;;;;;;;5.93;4.55;;;4.50;99.90;;;;;;4957334;28;20046;-92
2023/01/27 09:43:14;;;;;;;5.10;4.55;;;;;;;;;;4972314;28;20054;-92
2023/01/27 09:45:46;;;;;;;6.88;4.60;;;4.50;99.90;;;;;;4956745;28;20385;-91
2023/01/27 09:48:37;;;;;;;5.17;4.67;;;4.60;99.90;;;;;;4957876;28;20056;-93
2023/01/27 09:51:17;;;;;;;5.45;4.60;;;;;;;;;;4958093;28;20636;-93
2023/01/27 09:54:26;;;;;;;7.10;4.28;;;4.50;99.90;;;;;;4957652;28;20046;-93
2023/01/27 09:57:12;;;;;;;4.43;3.58;;;4.50;99.90;;;;;;4974835;28;20120;-89
2023/01/27 09:59:45;;;;;;;4.03;3.63;;;4.50;99.90;;;;;;4959797;28;20042;-88
2023/01/27 10:02:25;;;;;;;5.18;3.17;;;4.60;99.90;;;;;;4974702;28;20097;-88
2023/01/27 10:05:02;;;;;;;4.35;3.47;;;4.70;99.90;;;;;;4975876;28;20050;-88
2023/01/27 10:07:48;;;;;;;4.72;3.65;;;;;;;;;;4975433;28;20053;-91
2023/01/27 10:10:41;;;;;;;4.97;4.00;;;4.50;99.90;;;;;;4977513;28;20061;-92
2023/01/27 10:13:30;;;;;;;4.97;3.45;;;4.50;99.90;;;;;;4960010;28;20182;-90
2023/01/27 10:16:33;;;;;;;3.75;3.40;;;4.30;99.90;;;;;;4959792;28;20053;-85
2023/01/27 10:19:17;;;;;;;6.20;3.60;;;4.40;99.90;;;;;;4959838;28;20448;-89
2023/01/27 10:22:08;;;;;;;4.93;3.45;;;4.50;99.90;;;;;;4974606;28;20038;-89
2023/01/27 10:24:56;;;;;;;4.80;3.17;;;;;;;;;;4978063;28;20064;-89
2023/01/27 10:27:23;;;;;;;5.57;3.30;;;4.50;99.90;;;;;;4995872;28;20057;-86
2023/01/27 10:29:56;;;;;;;6.57;3.80;;;4.50;99.90;;;;;;4995724;28;20635;-88
2023/01/27 10:32:27;;;;;;;4.63;3.10;;;4.70;99.90;;;;;;4995929;28;20065;-89
2023/01/27 10:35:08;;;;;;;4.00;3.00;;;;;;;;;;4995421;28;20097;-88
2023/01/27 10:37:48;;;;;;;3.47;3.10;;;4.40;99.90;;;;;;4962311;28;20073;-92
2023/01/27 10:41:10;;;;;;;4.18;2.75;;;4.30;99.90;;;;;;4960639;28;20489;-88
2023/01/27 10:43:52;;;;;;;2.97;2.33;;;4.30;99.90;;;;;;4905989;28;20087;-87
2023/01/27 10:46:47;;;;;;;2.58;2.38;;;4.20;99.90;;;;;;4958263;28;20039;-86
2023/01/27 10:49:22;;;;;;;3.03;2.72;;;4.30;99.90;;;;;;4958293;28;20116;-87
2023/01/27 10:52:09;;;;;;;4.78;3.05;;;4.20;99.90;;;;;;4957920;28;20057;-88
2023/01/27 10:54:45;;;;;;;3.13;2.83;;;4.20;99.90;;;;;;4958219;28;20042;-87
2023/01/27 10:57:16;;;;;;;3.58;2.80;;;4.20;99.90;;;;;;4964279;28;20057;-87
2023/01/27 11:00:20;;;;;;;3.05;2.65;;;5.50;99.90;;;;;;4964057;28;20527;-87
2023/01/27 11:03:04;;;;;;;3.60;2.40;;;4.30;99.90;;;;;;4938293;28;20059;-84
2023/01/27 11:05:35;;;;;;;3.10;2.80;;;4.80;99.90;;;;;;4972048;28;20062;-84
2023/01/27 11:08:23;;;;;;;3.70;3.30;;;4.30;99.90;;;;;;4971659;28;20122;-88
2023/01/27 11:13:38;;;;;;;4.40;2.85;;;4.20;99.90;;;;;;4978016;28;20053;-91
2023/01/27 11:16:06;;;;;;;3.42;2.90;;;4.30;99.90;;;;;;4975330;28;20046;-94
2023/01/27 11:18:36;;;;;;;3.35;3.05;;;4.30;99.90;;;;;;4990927;28;20034;-91
2023/01/27 11:21:10;;;;;;;3.13;2.92;;;5.10;99.90;;;;;;4958842;28;20042;-91
2023/01/27 11:23:44;;;;;;;3.83;2.72;;;3.30;99.90;;;;;;4974321;28;20125;-91
2023/01/27 11:26:40;;;;;;;3.63;3.13;;;5.00;99.90;;;;;;4992525;28;20065;-91
2023/01/27 11:29:17;;;;;;;3.50;3.20;;;4.30;99.90;;;;;;4978325;28;20052;-91
2023/01/27 11:31:55;;;;;;;2.95;2.72;;;3.50;99.90;;;;;;4969686;28;20052;-91
2023/01/27 11:34:32;;;;;;;4.35;2.80;;;4.20;99.90;;;;;;4974764;28;20140;-90
2023/01/27 11:36:59;;;;;;;4.10;2.70;;;4.20;99.90;;;;;;4958232;28;20048;-91
2023/01/27 11:39:30;;;;;;;3.50;2.80;;;4.30;99.90;;;;;;4961331;28;20133;-90
2023/01/27 11:41:56;;;;;;;3.00;2.70;;;4.30;99.90;;;;;;4967302;28;20176;-92
2023/01/27 11:44:26;;;;;;;4.20;2.67;;;5.00;99.90;;;;;;4977491;28;20112;-91
2023/01/27 11:46:54;;;;;;;3.15;2.83;;;4.30;99.90;;;;;;4978667;28;20133;-92
2023/01/27 11:49:26;;;;;;;2.30;2.00;;;4.40;99.90;;;;;;4978269;28;20046;-93
2023/01/27 11:52:04;;;;;;;3.00;2.20;;;4.40;99.90;;;;;;4978879;28;20045;-94
2023/01/27 11:54:35;;;;;;;2.63;2.35;;;5.10;99.90;;;;;;4967775;28;20050;-91
2023/01/27 11:57:01;;;;;;;2.85;2.47;;;5.10;99.90;;;;;;4957553;28;20069;-91
2023/01/27 11:59:36;;;;;;;2.35;2.15;;;4.40;99.90;;;;;;4957610;28;20469;-90
2023/01/27 12:02:20;;;;;;;3.40;2.40;;;4.40;99.90;;;;;;4958239;28;20077;-90
2023/01/27 12:05:11;;;;;;;2.35;2.03;;;4.50;99.90;;;;;;4968810;28;20052;-90
2023/01/27 12:07:48;;;;;;;2.65;2.35;;;4.50;99.90;;;;;;4959153;28;20038;-91
2023/01/27 12:10:30;;;;;;;2.75;1.90;;;4.50;99.90;;;;;;4959132;28;20108;-91
2023/01/27 12:12:59;;;;;;;3.17;1.90;;;4.50;99.90;;;;;;4974271;28;20184;-91
2023/01/27 12:15:27;;;;;;;2.75;2.40;;;4.20;99.90;;;;;;4973637;28;20049;-92
2023/01/27 12:18:04;;;;;;;2.20;2.00;;;4.60;99.90;;;;;;4970983;28;20426;-90
2023/01/27 12:20:39;;;;;;;4.13;1.90;;;4.60;99.90;;;;;;4958140;28;20053;-93
2023/01/27 12:23:31;;;;;;;2.47;2.17;;;4.60;99.90;;;;;;4958614;28;20058;-93
2023/01/27 12:26:10;;;;;;;2.25;2.00;;;4.60;99.90;;;;;;4957999;28;20489;-91
2023/01/27 12:28:50;;;;;;;7.25;4.22;;;5.00;99.90;;;;;;4958450;28;20050;-92
2023/01/27 12:31:23;;;;;;;3.50;2.97;;;4.70;99.90;;;;;;4970156;28;20104;-93
2023/01/27 12:34:19;;;;;;;18.20;14.57;;;4.70;99.90;;;;;;4957346;28;20046;-93
2023/01/27 12:36:46;;;;;;;13.57;12.27;;;4.70;99.90;;;;;;4955077;28;20117;-93
2023/01/27 12:39:33;;;;;;;17.73;16.00;;;4.70;99.90;;;;;;4977409;28;20042;-93
2023/01/27 12:41:58;;;;;;;9.15;7.47;;;4.70;99.90;;;;;;4977364;28;20050;-91
2023/01/27 12:44:27;;;;;;;3.42;3.13;;;4.60;99.90;;;;;;4975285;28;20053;-93
2023/01/27 12:47:18;;;;;;;10.00;9.20;;;4.60;99.90;;;;;;4968100;28;20097;-92
2023/01/27 12:49:43;;;;;;;4.10;3.70;;;4.60;99.90;;;;;;4957854;28;20042;-91
2023/01/27 12:52:18;;;;;;;4.40;4.05;;;4.60;99.90;;;;;;4957169;28;20038;-92
2023/01/27 12:54:44;;;;;;;7.47;6.85;;;4.60;99.90;;;;;;4974381;28;20053;-92
2023/01/27 12:57:19;;;;;;;3.55;3.25;;;4.60;99.90;;;;;;4956902;28;20040;-92
2023/01/27 12:59:56;;;;;;;4.97;4.47;;;5.50;99.90;;;;;;4964751;28;20038;-93
2023/01/27 13:02:29;;;;;;;3.10;2.90;;;4.60;99.90;;;;;;4943509;28;20057;-94
2023/01/27 13:05:00;;;;;;;;;;;5.70;99.90;;;;;;4938832;28;20047;-93
2023/01/27 13:07:42;;;;;;;2.95;2.72;;;4.60;99.90;;;;;;4955171;28;19922;-92
2023/01/27 13:10:28;;;;;;;2.70;2.50;;;4.60;99.90;;;;;;4964672;28;20046;-93
2023/01/27 13:12:57;;;;;;;2.88;2.55;;;4.60;99.90;;;;;;4947151;28;20473;-93
2023/01/27 13:15:24;;;;;;;2.40;2.20;;;;;;;;;;4938390;28;20141;-93
2023/01/27 13:17:52;;;;;;;2.55;2.35;;;4.70;99.90;;;;;;4938194;28;20077;-92
2023/01/27 13:20:25;;;;;;;4.70;4.32;;;;;;;;;;4938571;28;20078;-93
2023/01/27 13:22:52;;;;;;;;;;;;;;;;;;4957456;28;20342;-92
2023/01/27 13:25:22;;;;;;;6.75;3.47;;;;;;;;;;4971211;28;19932;-93
2023/01/27 13:27:49;;;;;;;4.32;4.03;;;;;;;;;;4938405;28;20062;-91
2023/01/27 13:30:18;;;;;;;2.85;2.65;;;;;;;;;;4967979;28;20092;-89
2023/01/27 13:32:47;;;;;;;2.55;2.35;;;;;;;;;;4994739;28;20057;-92
2023/01/27 13:35:24;;;;;;;2.67;1.90;;;;;;;;;;4976608;28;20038;-91
2023/01/27 13:38:04;;;;;;;3.88;3.05;;;;;;;;;;4940136;28;20509;-91
2023/01/27 13:40:46;;;;;;;2.78;2.58;;;;;;;;;;4941351;28;20450;-91
2023/01/27 13:43:18;;;;;;;5.35;4.80;;;;;;;;;;4941827;28;20046;-91
2023/01/27 13:45:54;;;;;;;4.90;4.50;;;;;;;;;;4957668;28;20054;-92
2023/01/27 13:48:24;;;;;;;3.10;2.80;;;;;;;;;;4944899;28;20128;-88
2023/01/27 13:50:58;;;;;;;3.67;3.38;;;;;;;;;;4938493;28;20497;-86
2023/01/27 13:53:24;;;;;;;5.57;5.18;;;4.60;99.90;;;;;;4938831;28;20496;-91
2023/01/27 13:56:08;;;;;;;4.20;3.80;;;5.10;99.90;;;;;;4977243;28;20467;-90
2023/01/27 13:58:54;;;;;;;4.57;3.80;;;4.60;99.90;;;;;;4958843;28;20114;-91
2023/01/27 14:01:46;;;;;;;3.28;2.75;;;4.60;99.90;;;;;;4987330;28;20488;-91